Latest Coastal Weather Observations for King Island Airport

IDT60701

Issued at 12:21 am EST Saturday 30 May 2015 (issued every 10 minutes, with the page automatically refreshed every 10 minutes)

About coastal observations | Map of coastal stations | Coastal observations for TAS | Marine services | Other Formats
Station Details ID: 098017 Name: KING ISLAND AIRPORT Lat: -39.88 Lon: 143.88 Height: 37.0 m
Data from the previous 72 hours. | See also: Recent months at King Island Airport
Date/Time
EST
Temp

°C
Wind Pressure Rain
since 9am
mm
Weather Cloud Vis
km
Sea
Height
m
Swell
Dir
 
Speed
knots
Gust
knots
hPa Trend Height
m
Period
s
Dir
30/12:00am 12.4 WNW 20 26 1017.7 - 0.2 - Mostly cloudy 10 - - - -
 
Date/Time
EST
Temp

°C
Wind Pressure Rain
since 9am
mm
Weather Cloud Vis
km
Sea
Height
m
Swell
Dir
 
Speed
knots
Gust
knots
hPa Trend Height
m
Period
s
Dir
29/11:30pm 12.3 WNW 20 26 1017.9 - 0.2 - Partly cloudy 10 - - - -
29/11:00pm 11.9 WNW 17 23 1018.0 - 0.2 - Partly cloudy 10 - - - -
29/10:30pm 12.1 WNW 19 24 1018.1 - 0.2 - Partly cloudy 10 - - - -
29/10:00pm 12.2 NW 20 24 1018.3 - 0.2 - Partly cloudy 10 - - - -
29/09:30pm 12.2 WNW 20 24 1018.4 - 0.2 - Partly cloudy 10 - - - -
29/09:00pm 12.1 WNW 19 24 1018.5 - 0.2 - Mostly clear 10 - - - -
29/08:30pm 12.2 WNW 18 25 1018.5 - 0.2 - Partly cloudy 10 - - - -
29/08:00pm 12.2 WNW 19 25 1018.6 - 0.2 - Partly cloudy 10 - - - -
29/07:30pm 12.0 WNW 18 22 1018.6 - 0.2 - Partly cloudy 10 - - - -
29/07:00pm 12.1 WNW 16 21 1018.5 - 0.2 - Partly cloudy 10 - - - -
29/06:30pm 11.8 WNW 17 21 1018.3 - 0.2 - Partly cloudy 10 - - - -
29/06:00pm 12.0 WNW 17 23 1018.1 - 0.2 Drizzle Mostly clear 10 - - - -
29/05:30pm 12.0 WNW 17 26 1018.1 - 0.2 - Partly cloudy 10 - - - -
29/05:27pm 11.9 WNW 16 26 1018.1 - 0.2 - Partly cloudy 10 - - - -
29/05:00pm 12.0 WNW 18 25 1017.9 - 0.2 - Partly cloudy 10 - - - -
29/04:30pm 12.1 WNW 18 25 1017.9 - 0.2 - Partly cloudy 10 - - - -
29/04:00pm 12.2 WNW 16 22 1017.8 - 0.2 - Partly cloudy 10 - - - -
29/03:30pm 13.0 WNW 17 21 1017.9 - 0.2 - Partly cloudy 10 - - - -
29/03:00pm 13.4 WNW 19 25 1017.8 - 0.2 - Mostly cloudy 10 - - - -
29/02:30pm 13.2 WNW 18 25 1017.7 - 0.2 - Partly cloudy 10 - - - -
29/02:00pm 13.0 WNW 15 20 1017.6 - 0.2 - Partly cloudy 10 - - - -
29/01:43pm 11.7 WNW 16 26 1017.8 - 0.2 - Partly cloudy 7 - - - -
29/01:30pm 12.7 W 16 21 1017.7 - 0.0 - Partly cloudy 10 - - - -
29/01:00pm 13.1 WNW 17 26 1017.8 - 0.0 - Partly cloudy 10 - - - -
29/12:55pm 12.7 WNW 15 26 1017.9 - 0.0 - Partly cloudy 10 - - - -
29/12:30pm 12.4 WNW 15 19 1018.1 - 0.0 - Partly cloudy 10 - - - -
29/12:02pm 12.8 W 17 27 1018.4 - 0.0 - Partly cloudy 10 - - - -
29/12:00pm 13.3 W 16 24 1018.4 - 0.0 Drizzle Mostly cloudy 10 - - - -
29/11:30am 12.7 WNW 15 19 1018.7 - 0.0 - Partly cloudy 10 - - - -
29/11:00am 11.6 WNW 17 22 1018.8 - 0.0 - Partly cloudy 10 - - - -
29/10:43am 12.7 W 17 29 1018.8 - 0.0 - Partly cloudy 10 - - - -
29/10:30am 12.9 W 17 23 1018.6 - 0.0 - - 10 - - - -
29/10:00am 12.2 W 15 21 1018.4 - 0.0 - Partly cloudy 10 - - - -
29/09:30am 11.8 W 13 18 1018.4 - 0.0 - Partly cloudy 10 - - - -
29/09:00am 10.4 W 17 28 1018.3 - 6.0 Showers Mostly cloudy 8 - - - -
29/08:52am 10.9 W 16 27 1018.3 - 6.0 - Partly cloudy 10 - - - -
29/08:30am 11.4 W 15 20 1017.9 - 5.8 - Partly cloudy 10 - - - -
29/08:00am 11.1 W 15 21 1017.5 - 5.8 - Partly cloudy 10 - - - -
29/07:30am 10.9 W 17 23 1017.2 - 5.8 - Partly cloudy 10 - - - -
29/07:00am 11.0 W 17 23 1016.9 - 5.8 - Partly cloudy 10 - - - -
29/06:30am 10.6 W 16 25 1016.4 - 5.8 - Partly cloudy 10 - - - -
29/06:00am 10.1 WSW 17 27 1016.2 - 5.8 - Cloudy 10 - - - -
29/05:45am 11.3 W 19 30 1016.0 - 5.8 - Partly cloudy 10 - - - -
29/05:30am 11.1 W 18 23 1015.9 - 5.8 - Partly cloudy 10 - - - -
29/05:09am 10.9 W 18 28 1016.0 - 5.8 - Partly cloudy 10 - - - -
29/05:00am 10.9 W 18 26 1015.9 - 5.8 - Partly cloudy 10 - - - -
29/04:46am 11.1 W 19 29 1015.7 - 5.8 - Partly cloudy 10 - - - -
29/04:30am 11.1 W 20 29 1015.4 - 5.8 - Partly cloudy 10 - - - -
29/04:19am 10.9 W 19 29 1015.3 - 5.8 - Partly cloudy 10 - - - -
29/04:00am 10.7 W 19 27 1015.1 - 5.8 - Partly cloudy 10 - - - -
29/03:42am 11.1 W 17 27 1015.0 - 5.8 - Partly cloudy 10 - - - -
29/03:30am 10.4 W 17 24 1015.0 - 5.8 - Partly cloudy 10 - - - -
29/03:15am 9.7 WNW 16 21 1015.0 - 5.8 - Partly cloudy 10 - - - -
29/03:05am 9.0 W 20 30 1015.0 - 5.8 - Partly cloudy 5 - - - -
29/03:03am 9.1 W 21 30 1015.1 - 5.6 - Partly cloudy 5 - - - -
29/03:02am 9.4 W 20 30 1015.2 - 5.6 - Partly cloudy 6 - - - -
29/03:00am 9.6 W 19 27 1015.1 - 5.2 Showers Cloudy 7 - - - -
29/02:38am 10.5 WNW 19 31 1014.7 - 4.8 - Partly cloudy 10 - - - -
29/02:30am 10.7 W 20 28 1014.5 - 4.8 - Partly cloudy 10 - - - -
29/02:01am 10.8 W 16 26 1014.5 - 4.8 - Partly cloudy 10 - - - -
29/02:00am 10.9 W 16 21 1014.5 - 4.8 - Partly cloudy 10 - - - -
29/01:33am 11.3 W 18 33 1014.3 - 4.8 - Partly cloudy 10 - - - -
29/01:30am 11.4 W 18 26 1014.1 - 4.8 - Partly cloudy 10 - - - -
29/01:00am 11.2 W 18 28 1014.1 - 4.8 - Partly cloudy 10 - - - -
29/12:30am 11.5 W 20 28 1014.0 - 4.8 - Partly cloudy 10 - - - -
29/12:00am 11.4 W 20 30 1013.9 - 4.8 Rain Cloudy 10 - - - -
 
Date/Time
EST
Temp

°C
Wind Pressure Rain
since 9am
mm
Weather Cloud Vis
km
Sea
Height
m
Swell
Dir
 
Speed
knots
Gust
knots
hPa Trend Height
m
Period
s
Dir
28/11:31pm 10.9 W 20 30 1014.0 - 4.8 - Partly cloudy 10 - - - -
28/11:30pm 11.0 W 21 30 1014.0 - 4.8 - Partly cloudy 10 - - - -
28/11:07pm 11.6 W 21 31 1013.6 - 4.8 - Partly cloudy 10 - - - -
28/11:00pm 12.0 W 25 32 1013.6 - 4.8 - Partly cloudy 10 - - - -
28/10:53pm 11.8 W 22 32 1013.5 - 4.8 - Partly cloudy 10 - - - -
28/10:30pm 11.4 W 21 29 1013.4 - 4.8 - Partly cloudy 10 - - - -
28/10:00pm 11.4 WNW 17 27 1013.3 - 4.8 - Partly cloudy 10 - - - -
28/09:35pm 11.6 WNW 20 30 1013.4 - 4.8 - Partly cloudy 10 - - - -
28/09:30pm 12.1 WNW 19 26 1013.1 - 4.8 - Partly cloudy 10 - - - -
28/09:22pm 11.9 WNW 19 29 1013.0 - 4.8 - Partly cloudy 10 - - - -
28/09:00pm 11.8 WNW 20 27 1012.9 - 4.8 - Partly cloudy 10 - - - -
28/08:30pm 11.8 W 17 24 1012.6 - 4.8 - Partly cloudy 10 - - - -
28/08:20pm 12.1 W 18 28 1012.6 - 4.8 - Partly cloudy 10 - - - -
28/08:00pm 12.1 W 18 25 1012.5 - 4.8 - Partly cloudy 10 - - - -
28/07:30pm 12.1 W 18 24 1012.3 - 4.8 - Partly cloudy 10 - - - -
28/07:05pm 11.6 W 17 27 1012.0 - 4.8 - Partly cloudy 8 - - - -
28/07:00pm 11.5 W 18 27 1012.2 - 4.8 - Partly cloudy 9 - - - -
28/06:57pm 12.0 W 16 26 1012.2 - 4.8 - Partly cloudy 10 - - - -
28/06:30pm 12.1 W 17 24 1011.8 - 4.8 - Partly cloudy 10 - - - -
28/06:08pm 12.2 W 18 28 1011.6 - 4.8 - Partly cloudy 10 - - - -
28/06:00pm 12.4 WNW 18 25 1011.4 - 4.8 Recent precip. Cloudy 10 - - - -
28/05:30pm 12.0 WNW 20 31 1011.3 - 4.8 - Partly cloudy 10 - - - -
28/05:29pm 12.3 WNW 19 29 1011.4 - 4.6 - Partly cloudy 10 - - - -
28/05:00pm 12.2 W 13 21 1010.9 - 4.6 - Partly cloudy 10 - - - -
28/04:30pm 12.2 W 15 21 1010.8 - 4.6 - Partly cloudy 10 - - - -
28/04:00pm 12.0 W 15 21 1010.7 - 4.4 - Partly cloudy 10 - - - -
28/03:30pm 12.3 W 17 25 1010.2 - 4.4 - Partly cloudy 10 - - - -
28/03:15pm 12.4 WNW 20 39 1010.0 - 4.4 - Partly cloudy 5 - - - -
28/03:10pm 12.9 WNW 22 39 1010.0 - 4.0 - Partly cloudy 10 - - - -
28/03:07pm 13.2 WNW 23 30 1009.8 - 4.0 - Partly cloudy 10 - - - -
28/03:00pm 12.9 WNW 24 30 1009.8 - 4.0 Showers Cloudy 9 - - - -
28/02:53pm 12.3 WNW 26 36 1009.8 - 4.0 - Partly cloudy 3 - - - -
28/02:30pm 13.9 NW 28 34 1009.8 - 0.2 - Partly cloudy 5 - - - -
28/02:00pm 15.8 NW 27 34 1009.5 - 0.0 - Partly cloudy 10 - - - -
28/01:30pm 16.3 NW 30 41 1009.8 - 0.0 - Partly cloudy 10 - - - -
28/01:24pm 15.6 NNW 29 41 1009.7 - 0.0 - Partly cloudy 10 - - - -
28/01:00pm 15.2 NNW 26 33 1010.1 - 0.0 - Partly cloudy 10 - - - -
28/12:30pm 15.6 NNW 23 29 1010.5 - 0.0 - Partly cloudy 10 - - - -
28/12:00pm 14.2 NNW 28 38 1010.9 - 0.0 - Cloudy 10 - - - -
28/11:47am 15.1 NNW 28 38 1011.0 - 0.0 - Partly cloudy 10 - - - -
28/11:30am 15.9 NNW 26 33 1011.2 - 0.0 - Partly cloudy 10 - - - -
28/11:00am 15.1 NNW 22 27 1011.7 - 0.0 - Partly cloudy 10 - - - -
28/10:30am 13.9 NW 22 28 1012.3 - 0.0 - Partly cloudy 10 - - - -
28/10:00am 15.6 NNW 25 32 1012.1 - 0.0 - Partly cloudy 10 - - - -
28/09:30am 15.1 NNW 27 33 1012.2 - 0.0 - Partly cloudy 10 - - - -
28/09:00am 14.9 NNW 26 33 1012.2 - 4.8 - Cloudy 10 - - - -
28/08:42am 14.6 NNW 21 31 1012.2 - 4.8 - Partly cloudy 10 - - - -
28/08:30am 14.5 NNW 21 26 1012.1 - 4.8 - Partly cloudy 10 - - - -
28/08:00am 14.0 NNW 16 21 1012.2 - 4.8 - Partly cloudy 10 - - - -
28/07:30am 13.5 NNW 20 28 1012.6 - 4.8 - Partly cloudy 10 - - - -
28/07:00am 14.2 NNW 22 29 1012.7 - 4.6 - Cloudy 10 - - - -
28/06:30am 14.2 NNW 19 26 1012.7 - 4.6 - Partly cloudy 10 - - - -
28/06:00am 14.1 NNW 19 26 1012.5 - 4.6 - Mostly cloudy 10 - - - -
28/05:30am 14.1 NNW 18 23 1012.6 - 4.6 - Partly cloudy 10 - - - -
28/05:00am 13.7 NNW 12 16 1012.9 - 4.6 - Partly cloudy 10 - - - -
28/04:30am 13.3 NW 12 17 1013.1 - 4.6 - Partly cloudy 9 - - - -
28/04:00am 13.2 NW 15 19 1013.5 - 4.4 - Partly cloudy 10 - - - -
28/03:30am 13.1 WNW 15 20 1013.6 - 4.2 - Partly cloudy 10 - - - -
28/03:09am 13.1 WNW 15 25 1013.8 - 4.2 - Partly cloudy 10 - - - -
28/03:00am 13.5 WNW 18 28 1013.8 - 4.2 Rain Cloudy 10 - - - -
28/02:30am 14.6 NNW 19 26 1013.5 - 4.2 - Partly cloudy 10 - - - -
28/02:00am 14.0 NNW 16 20 1013.5 - 4.2 - Partly cloudy 10 - - - -
28/01:30am 14.0 NNW 13 16 1013.8 - 4.2 - Partly cloudy 10 - - - -
28/01:00am 13.9 NNW 15 20 1014.3 - 4.2 - Partly cloudy 10 - - - -
28/12:30am 14.1 NNW 13 17 1014.6 - 4.2 - Cloudy 10 - - - -
28/12:00am 13.9 NNW 13 16 1014.8 - 4.2 Rain Cloudy 10 - - - -
 
Date/Time
EST
Temp

°C
Wind Pressure Rain
since 9am
mm
Weather Cloud Vis
km
Sea
Height
m
Swell
Dir
 
Speed
knots
Gust
knots
hPa Trend Height
m
Period
s
Dir
27/11:30pm 13.6 NW 9 12 1015.0 - 4.2 - Partly cloudy 10 - - - -
27/11:17pm 13.4 NW 11 14 1015.0 - 4.2 - Partly cloudy 10 - - - -
27/11:00pm 13.6 WNW 11 15 1015.1 - 3.8 - Partly cloudy 5 - - - -
27/10:30pm 13.8 NW 15 17 1015.3 - 3.0 - Partly cloudy 10 - - - -
27/10:00pm 13.8 NNW 16 21 1015.3 - 3.0 - Partly cloudy 8 - - - -
27/09:34pm 14.1 NW 17 21 1015.2 - 3.0 - Partly cloudy 10 - - - -
27/09:30pm 14.0 NW 17 22 1015.2 - 3.0 - Partly cloudy 10 - - - -
27/09:16pm 13.6 NW 11 25 1015.1 - 3.0 - Partly cloudy 2 - - - -
27/09:13pm 14.3 NNW 9 13 1015.4 - 2.0 - Partly cloudy 5 - - - -
27/09:00pm 14.5 NNW 10 13 1015.2 - 0.0 Showers Cloudy 10 - - - -
27/08:30pm 14.3 NNW 12 15 1015.3 - 0.0 - Partly cloudy 10 - - - -
27/08:00pm 14.2 NW 14 17 1015.3 - 0.0 - Partly cloudy 10 - - - -
27/07:30pm 14.4 NNW 16 21 1015.5 - 0.0 - Cloudy 10 - - - -
27/07:00pm 14.7 NNW 18 24 1015.4 - 0.0 - Partly cloudy 10 - - - -
27/06:30pm 14.6 NNW 19 25 1015.3 - 0.0 - Partly cloudy 10 - - - -
27/06:00pm 14.5 NNW 18 22 1015.2 - 0.0 Showers Mostly cloudy 10 - - - -
27/05:41pm 14.5 NNW 18 29 1015.3 - 0.0 - Partly cloudy 8 - - - -
27/05:30pm 14.9 NNW 15 19 1015.0 - 0.0 - Partly cloudy 10 - - - -
27/05:00pm 15.0 NNW 15 21 1014.9 - 0.0 - Partly cloudy 10 - - - -
27/04:30pm 14.9 NNW 15 19 1014.7 - 0.0 - Cloudy 10 - - - -
27/04:00pm 15.1 NNW 15 20 1014.9 - 0.0 - Cloudy 10 - - - -
27/03:30pm 15.1 NNW 14 19 1015.2 - 0.0 - Cloudy 10 - - - -
27/03:00pm 15.7 NNW 16 21 1015.1 - 0.0 - - 10 - - - -
27/02:30pm 16.1 NNW 17 21 1015.0 - 0.0 - - 10 - - - -
27/02:00pm 16.0 NNW 17 21 1015.2 - 0.0 - - 10 - - - -
27/01:30pm 15.8 NNW 18 23 1015.6 - 0.0 - - 10 - - - -
27/01:00pm 15.8 NNW 18 21 1015.9 - 0.0 - Partly cloudy 10 - - - -
27/12:30pm 15.4 NNW 18 23 1016.3 - 0.0 - Cloudy 10 - - - -
27/12:00pm 15.0 NNW 16 22 1016.8 - 0.0 - Cloudy 10 - - - -
27/11:30am 15.0 NNW 14 19 1017.2 - 0.0 - Cloudy 10 - - - -
27/11:00am 15.1 N 16 20 1017.3 - 0.0 - Cloudy 10 - - - -
27/10:30am 15.5 N 15 21 1017.5 - 0.0 - Partly cloudy 10 - - - -
27/10:00am 15.0 N 15 21 1017.4 - 0.0 - Partly cloudy 10 - - - -
27/09:30am 14.7 N 15 20 1017.6 - 0.0 - Partly cloudy 10 - - - -
27/09:00am 13.5 N 11 14 1017.7 - 1.2 - Cloudy 10 - - - -
27/08:30am 12.7 NNE 11 14 1017.8 - 1.2 - Partly cloudy 10 - - - -
27/08:00am 12.4 NNE 10 13 1017.5 - 1.2 - Partly cloudy 10 - - - -
27/07:30am 12.2 NNE 10 13 1017.5 - 1.2 - Partly cloudy 10 - - - -
27/07:00am 12.7 NNE 9 12 1017.6 - 1.2 - Cloudy 10 - - - -
27/06:30am 12.6 NNE 8 10 1017.5 - 1.2 - Cloudy 10 - - - -
27/06:00am 12.8 N 11 15 1017.7 - 1.2 Rain Cloudy 10 - - - -
27/05:30am 12.9 N 11 15 1018.0 - 1.2 - Partly cloudy 8 - - - -
27/05:00am 12.9 NNW 12 18 1018.4 - 0.6 - Partly cloudy 7 - - - -
27/04:30am 12.3 NNE 6 7 1018.5 - 0.2 - Partly cloudy 10 - - - -
27/04:00am 12.4 NNE 8 11 1018.4 - 0.0 - Partly cloudy 10 - - - -
27/03:30am 12.3 NNE 9 12 1019.0 - 0.0 - Partly cloudy 10 - - - -
27/03:00am 11.9 NNE 7 9 1019.3 - 0.0 - Cloudy 10 - - - -
27/02:30am 11.6 NE 7 10 1019.4 - 0.0 - Cloudy 10 - - - -
27/02:00am 11.5 NE 6 8 1019.8 - 0.0 - - 10 - - - -
27/01:30am 11.5 NE 7 8 1020.1 - 0.0 - Partly cloudy 10 - - - -
27/01:00am 11.4 NE 7 9 1020.4 - 0.0 - Cloudy 10 - - - -
27/12:30am 11.1 NE 7 9 1021.0 - 0.0 - Partly cloudy 10 - - - -

Other Formats:

Comma delimited format used in spreadsheet applications
http://www.bom.gov.au/fwo/IDT60701/IDT60701.94850.axf

JavaScript Object Notation format (JSON) in row-major order
http://www.bom.gov.au/fwo/IDT60701/IDT60701.94850.json